Time,TemperatureF,DewpointF,PressureIn,WindDirection,WindDirectionDegrees,WindSpeedMPH,WindSpeedGustMPH,Humidity,HourlyPrecipIn,Conditions,Clouds,dailyrainin,SoftwareType,DateUTC
2013-01-09 00:01:00,0.5,-3.0,30.93,WSW,248,1.0,2.0,84,0.00,,,0.00,weatherlink.com 1.10,2013-01-09 07:01:00,
2013-01-09 00:16:00,0.9,-2.0,30.93,WSW,253,1.0,2.0,86,0.00,,,0.00,weatherlink.com 1.10,2013-01-09 07:16:00,
2013-01-09 00:31:00,0.2,-4.0,30.94,WSW,258,1.0,1.0,83,0.00,,,0.00,weatherlink.com 1.10,2013-01-09 07:31:00,
2013-01-09 00:46:00,-0.3,-4.0,30.94,West,264,1.0,1.0,85,0.00,,,0.00,weatherlink.com 1.10,2013-01-09 07:46:00,
2013-01-09 01:01:00,-0.4,-4.0,30.93,WSW,249,0.0,2.0,86,0.00,,,0.00,weatherlink.com 1.10,2013-01-09 08:01:00,
2013-01-09 01:16:00,-0.2,-4.0,30.93,WSW,252,0.0,1.0,85,0.00,,,0.00,weatherlink.com 1.10,2013-01-09 08:16:00,
2013-01-09 01:31:00,-1.5,-5.0,30.93,WSW,252,0.0,1.0,83,0.00,,,0.00,weatherlink.com 1.10,2013-01-09 08:31:00,
2013-01-09 01:46:00,-1.6,-5.0,30.93,WSW,250,0.0,1.0,84,0.00,,,0.00,weatherlink.com 1.10,2013-01-09 08:46:00,
2013-01-09 02:01:00,-1.8,-6.0,30.92,WSW,250,0.0,1.0,83,0.00,,,0.00,weatherlink.com 1.10,2013-01-09 09:01:00,
2013-01-09 02:16:00,-2.7,-7.0,30.92,WSW,251,0.0,1.0,83,0.00,,,0.00,weatherlink.com 1.10,2013-01-09 09:16:00,
2013-01-09 02:31:00,-3.2,-7.0,30.92,West,262,0.0,1.0,83,0.00,,,0.00,weatherlink.com 1.10,2013-01-09 09:31:00,
2013-01-09 02:46:00,-3.2,-7.0,30.92,WSW,252,1.0,1.0,84,0.00,,,0.00,weatherlink.com 1.10,2013-01-09 09:46:00,
2013-01-09 03:01:00,-3.4,-7.0,30.93,WSW,257,0.0,1.0,83,0.00,,,0.00,weatherlink.com 1.10,2013-01-09 10:01:00,
2013-01-09 03:17:00,-4.2,-8.0,30.93,WSW,252,1.0,1.0,82,0.00,,,0.00,weatherlink.com 1.10,2013-01-09 10:17:00,
2013-01-09 03:32:00,-3.7,-7.0,30.92,WSW,248,1.0,2.0,85,0.00,,,0.00,weatherlink.com 1.10,2013-01-09 10:32:00,
2013-01-09 03:47:00,-4.3,-8.0,30.93,WSW,250,0.0,1.0,82,0.00,,,0.00,weatherlink.com 1.10,2013-01-09 10:47:00,
2013-01-09 04:02:00,-5.0,-9.0,30.92,WSW,250,0.0,1.0,82,0.00,,,0.00,weatherlink.com 1.10,2013-01-09 11:02:00,
2013-01-09 04:17:00,-4.8,-8.0,30.91,WSW,252,0.0,1.0,84,0.00,,,0.00,weatherlink.com 1.10,2013-01-09 11:17:00,
2013-01-09 04:32:00,-5.0,-9.0,30.91,WSW,252,0.0,0.0,82,0.00,,,0.00,weatherlink.com 1.10,2013-01-09 11:32:00,
2013-01-09 04:47:00,-5.6,-10.0,30.91,WSW,252,0.0,0.0,82,0.00,,,0.00,weatherlink.com 1.10,2013-01-09 11:47:00,
2013-01-09 05:02:00,-6.1,-10.0,30.91,WSW,258,0.0,1.0,82,0.00,,,0.00,weatherlink.com 1.10,2013-01-09 12:02:00,
2013-01-09 05:17:00,-5.3,-9.0,30.91,WSW,250,1.0,2.0,84,0.00,,,0.00,weatherlink.com 1.10,2013-01-09 12:17:00,
2013-01-09 05:32:00,-5.4,-10.0,30.92,West,261,0.0,1.0,82,0.00,,,0.00,weatherlink.com 1.10,2013-01-09 12:32:00,
2013-01-09 05:47:00,-6.1,-10.0,30.93,WSW,255,0.0,1.0,82,0.00,,,0.00,weatherlink.com 1.10,2013-01-09 12:47:00,
2013-01-09 06:02:00,-5.9,-10.0,30.93,WSW,255,1.0,1.0,83,0.00,,,0.00,weatherlink.com 1.10,2013-01-09 13:02:00,
2013-01-09 06:17:00,-6.2,-10.0,30.93,WSW,253,1.0,1.0,82,0.00,,,0.00,weatherlink.com 1.10,2013-01-09 13:17:00,
2013-01-09 06:33:00,-5.6,-10.0,30.93,WSW,251,0.0,2.0,82,0.00,,,0.00,weatherlink.com 1.10,2013-01-09 13:33:00,
2013-01-09 06:48:00,-5.5,-10.0,30.93,WSW,257,0.0,1.0,82,0.00,,,0.00,weatherlink.com 1.10,2013-01-09 13:48:00,
2013-01-09 07:03:00,-5.8,-10.0,30.93,WSW,257,0.0,1.0,82,0.00,,,0.00,weatherlink.com 1.10,2013-01-09 14:03:00,
2013-01-09 07:18:00,-6.3,-10.0,30.93,WSW,255,0.0,1.0,82,0.00,,,0.00,weatherlink.com 1.10,2013-01-09 14:18:00,
2013-01-09 07:33:00,-6.0,-10.0,30.94,WSW,252,1.0,2.0,83,0.00,,,0.00,weatherlink.com 1.10,2013-01-09 14:33:00,
2013-01-09 07:48:00,-5.5,-10.0,30.96,WSW,257,0.0,1.0,82,0.00,,,0.00,weatherlink.com 1.10,2013-01-09 14:48:00,
2013-01-09 08:03:00,-5.5,-9.0,30.98,WSW,252,0.0,1.0,84,0.00,,,0.00,weatherlink.com 1.10,2013-01-09 15:03:00,
2013-01-09 08:18:00,-3.7,-7.0,30.98,West,262,0.0,2.0,86,0.00,,,0.00,weatherlink.com 1.10,2013-01-09 15:18:00,
2013-01-09 08:33:00,-1.8,-5.0,30.98,West,275,0.0,2.0,86,0.00,,,0.00,weatherlink.com 1.10,2013-01-09 15:33:00,
2013-01-09 08:48:00,-0.1,-4.0,30.99,West,269,0.0,1.0,85,0.00,,,0.00,weatherlink.com 1.10,2013-01-09 15:48:00,
2013-01-09 09:03:00,1.3,-2.0,31.00,West,268,0.0,1.0,85,0.00,,,0.00,weatherlink.com 1.10,2013-01-09 16:03:00,
2013-01-09 09:18:00,4.9,2.0,31.00,West,271,0.0,1.0,86,0.00,,,0.00,weatherlink.com 1.10,2013-01-09 16:18:00,
2013-01-09 09:33:00,9.4,6.0,30.99,WSW,255,0.0,2.0,84,0.00,,,0.00,weatherlink.com 1.10,2013-01-09 16:33:00,
2013-01-09 09:48:00,12.5,7.0,30.98,West,262,0.0,1.0,80,0.00,,,0.00,weatherlink.com 1.10,2013-01-09 16:48:00,
2013-01-09 10:04:00,17.2,12.0,30.97,West,266,0.0,1.0,80,0.00,,,0.00,weatherlink.com 1.10,2013-01-09 17:04:00,
2013-01-09 10:19:00,22.2,14.0,30.95,West,266,0.0,0.0,71,0.00,,,0.00,weatherlink.com 1.10,2013-01-09 17:19:00,
2013-01-09 10:34:00,27.6,16.0,30.93,West,266,0.0,0.0,61,0.00,,,0.00,weatherlink.com 1.10,2013-01-09 17:34:00,
2013-01-09 10:49:00,33.2,17.0,30.91,West,266,0.0,0.0,51,0.00,,,0.00,weatherlink.com 1.10,2013-01-09 17:49:00,
2013-01-09 11:04:00,30.7,15.0,30.89,ESE,107,2.0,3.0,52,0.00,,,0.00,weatherlink.com 1.10,2013-01-09 18:04:00,
2013-01-09 11:19:00,26.2,11.0,30.89,ESE,107,3.0,5.0,52,0.00,,,0.00,weatherlink.com 1.10,2013-01-09 18:19:00,
2013-01-09 11:34:00,25.2,10.0,30.87,ESE,103,2.0,3.0,53,0.00,,,0.00,weatherlink.com 1.10,2013-01-09 18:34:00,
2013-01-09 11:49:00,25.7,12.0,30.85,ESE,106,1.0,3.0,56,0.00,,,0.00,weatherlink.com 1.10,2013-01-09 18:49:00,
2013-01-09 12:04:00,27.7,13.0,30.83,East,101,2.0,2.0,55,0.00,,,0.00,weatherlink.com 1.10,2013-01-09 19:04:00,
2013-01-09 12:19:00,31.4,13.0,30.81,East,101,1.0,2.0,47,0.00,,,0.00,weatherlink.com 1.10,2013-01-09 19:19:00,
2013-01-09 12:34:00,34.9,17.0,30.80,East,98,0.0,1.0,49,0.00,,,0.00,weatherlink.com 1.10,2013-01-09 19:34:00,
2013-01-09 12:49:00,37.0,15.0,30.78,ESE,103,1.0,2.0,41,0.00,,,0.00,weatherlink.com 1.10,2013-01-09 19:49:00,
2013-01-09 13:04:00,36.8,16.0,30.77,ESE,102,1.0,3.0,43,0.00,,,0.00,weatherlink.com 1.10,2013-01-09 20:04:00,
2013-01-09 13:19:00,36.0,14.0,30.76,ESE,111,1.0,4.0,41,0.00,,,0.00,weatherlink.com 1.10,2013-01-09 20:19:00,
2013-01-09 13:35:00,35.9,16.0,30.75,ESE,103,2.0,3.0,44,0.01,,,0.01,weatherlink.com 1.10,2013-01-09 20:35:00,
2013-01-09 13:50:00,35.4,15.0,30.75,ESE,106,2.0,3.0,43,0.01,,,0.01,weatherlink.com 1.10,2013-01-09 20:50:00,
2013-01-09 14:05:00,34.6,16.0,30.75,ESE,105,0.0,4.0,46,0.02,,,0.02,weatherlink.com 1.10,2013-01-09 21:05:00,
2013-01-09 14:20:00,33.8,14.0,30.75,East,86,1.0,4.0,44,0.02,,,0.02,weatherlink.com 1.10,2013-01-09 21:20:00,
2013-01-09 14:35:00,35.3,15.0,30.74,East,86,0.0,2.0,44,0.01,,,0.02,weatherlink.com 1.10,2013-01-09 21:35:00,
2013-01-09 14:50:00,35.2,14.0,30.74,East,90,2.0,4.0,41,0.01,,,0.02,weatherlink.com 1.10,2013-01-09 21:50:00,
2013-01-09 15:05:00,36.1,17.0,30.73,East,95,0.0,0.0,46,0.00,,,0.02,weatherlink.com 1.10,2013-01-09 22:05:00,
2013-01-09 15:20:00,35.0,17.0,30.72,East,95,0.0,0.0,48,0.00,,,0.02,weatherlink.com 1.10,2013-01-09 22:20:00,
2013-01-09 15:35:00,31.4,15.0,30.72,ESE,109,0.0,2.0,51,0.00,,,0.02,weatherlink.com 1.10,2013-01-09 22:35:00,
2013-01-09 16:23:00,24.5,14.0,30.71,ESE,109,0.0,1.0,65,0.00,,,0.02,weatherlink.com 1.10,2013-01-09 23:23:00,
2013-01-09 16:35:00,23.1,14.0,30.71,ESE,109,0.0,0.0,68,0.00,,,0.02,weatherlink.com 1.10,2013-01-09 23:35:00,
2013-01-09 16:51:00,20.7,13.0,30.71,ESE,110,0.0,1.0,72,0.00,,,0.02,weatherlink.com 1.10,2013-01-09 23:51:00,
2013-01-09 17:06:00,19.3,12.0,30.71,ESE,110,0.0,1.0,73,0.00,,,0.02,weatherlink.com 1.10,2013-01-10 00:06:00,
2013-01-09 17:21:00,17.7,11.0,30.72,ESE,110,0.0,0.0,75,0.00,,,0.02,weatherlink.com 1.10,2013-01-10 00:21:00,
2013-01-09 17:36:00,16.0,10.0,30.73,ESE,110,0.0,1.0,77,0.00,,,0.02,weatherlink.com 1.10,2013-01-10 00:36:00,
2013-01-09 17:51:00,14.5,9.0,30.73,SE,126,0.0,1.0,78,0.00,,,0.02,weatherlink.com 1.10,2013-01-10 00:51:00,
2013-01-09 18:06:00,13.4,8.0,30.73,SW,215,0.0,1.0,80,0.00,,,0.02,weatherlink.com 1.10,2013-01-10 01:06:00,
2013-01-09 18:21:00,12.7,8.0,30.73,SW,215,0.0,1.0,80,0.00,,,0.02,weatherlink.com 1.10,2013-01-10 01:21:00,
2013-01-09 18:36:00,12.0,7.0,30.72,SW,219,0.0,1.0,81,0.00,,,0.02,weatherlink.com 1.10,2013-01-10 01:36:00,
2013-01-09 18:51:00,11.1,6.0,30.73,SW,219,0.0,1.0,81,0.00,,,0.02,weatherlink.com 1.10,2013-01-10 01:51:00,
2013-01-09 19:06:00,10.9,7.0,30.73,WSW,254,0.0,1.0,83,0.00,,,0.02,weatherlink.com 1.10,2013-01-10 02:06:00,
2013-01-09 19:21:00,10.3,6.0,30.73,WSW,254,0.0,1.0,83,0.00,,,0.02,weatherlink.com 1.10,2013-01-10 02:21:00,
2013-01-09 19:36:00,9.9,6.0,30.72,WSW,254,0.0,1.0,82,0.00,,,0.02,weatherlink.com 1.10,2013-01-10 02:36:00,
2013-01-09 19:51:00,9.6,5.0,30.72,WSW,254,0.0,1.0,82,0.00,,,0.02,weatherlink.com 1.10,2013-01-10 02:51:00,
2013-01-09 20:07:00,9.4,5.0,30.72,WSW,255,0.0,1.0,82,0.00,,,0.02,weatherlink.com 1.10,2013-01-10 03:07:00,
2013-01-09 20:22:00,8.9,5.0,30.71,WSW,252,1.0,2.0,84,0.00,,,0.02,weatherlink.com 1.10,2013-01-10 03:22:00,
2013-01-09 20:37:00,8.7,5.0,30.71,WSW,250,1.0,2.0,83,0.00,,,0.02,weatherlink.com 1.10,2013-01-10 03:37:00,
2013-01-09 20:52:00,8.3,4.0,30.71,WSW,253,1.0,1.0,83,0.00,,,0.02,weatherlink.com 1.10,2013-01-10 03:52:00,
2013-01-09 21:07:00,7.8,4.0,30.70,WSW,257,0.0,1.0,83,0.00,,,0.02,weatherlink.com 1.10,2013-01-10 04:07:00,
2013-01-09 21:22:00,7.3,3.0,30.70,WSW,255,1.0,1.0,83,0.00,,,0.02,weatherlink.com 1.10,2013-01-10 04:22:00,
2013-01-09 21:37:00,7.5,3.0,30.69,WSW,254,1.0,2.0,83,0.00,,,0.02,weatherlink.com 1.10,2013-01-10 04:37:00,
2013-01-09 21:52:00,6.9,3.0,30.68,WSW,254,1.0,1.0,82,0.00,,,0.02,weatherlink.com 1.10,2013-01-10 04:52:00,
2013-01-09 22:07:00,6.7,3.0,30.68,WSW,252,0.0,2.0,83,0.00,,,0.02,weatherlink.com 1.10,2013-01-10 05:07:00,
2013-01-09 22:22:00,6.1,2.0,30.68,WSW,253,1.0,1.0,84,0.00,,,0.02,weatherlink.com 1.10,2013-01-10 05:22:00,
2013-01-09 23:07:00,5.0,1.0,30.66,West,267,1.0,1.0,83,0.00,,,0.02,weatherlink.com 1.10,2013-01-10 06:07:00,
2013-01-09 23:23:00,4.5,0.0,30.65,WSW,258,0.0,1.0,83,0.00,,,0.02,weatherlink.com 1.10,2013-01-10 06:23:00,
2013-01-09 23:38:00,4.1,0.0,30.64,WSW,255,0.0,1.0,83,0.00,,,0.02,weatherlink.com 1.10,2013-01-10 06:38:00,
2013-01-09 23:53:00,3.6,0.0,30.63,WSW,252,1.0,2.0,85,0.00,,,0.02,weatherlink.com 1.10,2013-01-10 06:53:00,